createdAt,value
2022-12-31T00:00:26.726Z,950.05
2022-12-31T00:15:28.961Z,950.09
2022-12-31T00:30:31.255Z,950.15
2022-12-31T00:45:33.567Z,950.17
2022-12-31T01:00:35.799Z,950.25
2022-12-31T01:15:38.109Z,950.33
2022-12-31T01:30:40.451Z,950.28
2022-12-31T01:45:42.832Z,950.28
2022-12-31T02:00:45.159Z,950.31
2022-12-31T02:15:47.592Z,950.18
2022-12-31T02:30:49.980Z,950.08
2022-12-31T02:45:52.291Z,950.06
2022-12-31T03:00:54.569Z,950.07
2022-12-31T03:15:56.835Z,950.25
2022-12-31T03:30:59.455Z,950.47
2022-12-31T03:46:02.034Z,950.34
2022-12-31T04:01:04.369Z,950.37
2022-12-31T04:16:06.742Z,950.45
2022-12-31T04:31:08.970Z,950.56
2022-12-31T04:46:11.186Z,950.59
2022-12-31T05:01:13.742Z,950.72
2022-12-31T05:16:16.409Z,950.74
2022-12-31T05:31:18.727Z,950.73
2022-12-31T05:46:21.174Z,950.81
2022-12-31T06:01:23.541Z,950.8
2022-12-31T06:16:25.905Z,950.76
2022-12-31T06:31:28.457Z,950.69
2022-12-31T06:46:30.873Z,950.65
2022-12-31T07:01:33.210Z,950.77
2022-12-31T07:16:35.587Z,950.75
2022-12-31T07:31:37.921Z,950.78
2022-12-31T07:46:40.349Z,950.8
2022-12-31T08:01:42.731Z,950.89
2022-12-31T08:16:45.161Z,951.03
2022-12-31T08:31:47.436Z,951.15
2022-12-31T08:46:49.700Z,951.16
2022-12-31T09:01:52.303Z,951.09
2022-12-31T09:16:54.736Z,951.14
2022-12-31T09:31:57.166Z,951.39
2022-12-31T09:46:59.438Z,951.55
2022-12-31T10:02:01.925Z,951.74
2022-12-31T10:17:04.368Z,951.92
2022-12-31T10:32:06.789Z,951.94
2022-12-31T10:47:09.157Z,951.94
2022-12-31T11:02:11.712Z,951.99
2022-12-31T11:17:14.031Z,951.92
2022-12-31T11:32:16.382Z,952
2022-12-31T11:47:18.622Z,951.92
2022-12-31T12:02:20.909Z,951.86
2022-12-31T12:17:23.412Z,951.86
2022-12-31T12:32:25.650Z,951.94
2022-12-31T12:47:28.077Z,951.94
2022-12-31T13:02:30.477Z,952.05
2022-12-31T13:17:32.978Z,952.08
2022-12-31T13:32:35.291Z,952.29
2022-12-31T13:47:37.509Z,952.28
2022-12-31T14:02:39.841Z,952.32
2022-12-31T14:17:42.285Z,952.56
2022-12-31T14:32:44.607Z,952.74
2022-12-31T14:47:46.842Z,952.8
2022-12-31T15:02:49.044Z,952.95
2022-12-31T15:17:51.299Z,953.15
2022-12-31T15:32:53.792Z,953.33
2022-12-31T15:47:56.033Z,953.5
2022-12-31T16:02:58.405Z,953.63
2022-12-31T16:18:00.814Z,953.83
2022-12-31T16:33:03.134Z,954.13
2022-12-31T16:48:05.574Z,954.33
2022-12-31T17:03:07.827Z,954.48
2022-12-31T17:18:10.118Z,954.72
2022-12-31T17:33:12.332Z,954.97
2022-12-31T17:48:14.610Z,955.15
2022-12-31T18:03:16.845Z,955.2
2022-12-31T18:18:24.350Z,955.33
2022-12-31T18:33:27.379Z,955.41
2022-12-31T18:48:29.728Z,955.46
2022-12-31T19:03:32.017Z,955.42
2022-12-31T19:18:34.424Z,955.35
2022-12-31T19:33:36.725Z,955.44
2022-12-31T19:48:39.091Z,955.52
2022-12-31T20:03:41.556Z,955.51
2022-12-31T20:18:43.797Z,955.66
2022-12-31T20:33:46.020Z,955.64
2022-12-31T20:48:48.257Z,955.62
2022-12-31T21:04:06.042Z,955.76
2022-12-31T21:19:09.311Z,955.86
2022-12-31T21:34:11.551Z,956.04
2022-12-31T21:49:13.937Z,956.13
2022-12-31T22:04:43.326Z,956.28
2022-12-31T22:20:26.486Z,956.37
2022-12-31T22:35:29.798Z,956.59
2022-12-31T22:50:32.085Z,956.8
2022-12-31T23:05:34.330Z,956.78
2022-12-31T23:20:36.548Z,956.94
2022-12-31T23:35:38.905Z,957.07
2022-12-31T23:50:41.130Z,957.34
